Time;durP1;ratioP1;P1;durP2;ratioP2;P2;SDS_P1;SDS_P2;PMS_P1;PMS_P2;Temp;Humidity;BMP_temperature;BMP_pressure;BME280_temperature;BME280_humidity;BME280_pressure;Samples;Min_cycle;Max_cycle;Signal;HPM_P1;HPM_P2
2021/04/13 00:02:27;;;;;;;7.75;2.40;;;;;;;0.83;100.00;103020.25;3585070;40;20067;-66
2021/04/13 00:04:58;;;;;;;7.57;2.60;;;;;;;0.78;100.00;103022.09;3586252;40;20044;-64
2021/04/13 00:07:25;;;;;;;5.70;2.70;;;;;;;0.75;100.00;103018.59;3585945;40;20088;-64
2021/04/13 00:09:52;;;;;;;6.43;2.80;;;;;;;0.82;100.00;103022.94;3639415;22;20055;-63
2021/04/13 00:12:23;;;;;;;9.43;3.10;;;;;;;0.75;100.00;103023.91;3595097;40;20031;-63
2021/04/13 00:14:51;;;;;;;5.30;2.72;;;;;;;0.74;100.00;103025.69;3595252;39;20050;-65
2021/04/13 00:17:21;;;;;;;11.00;3.00;;;;;;;0.74;100.00;103030.09;3594922;39;20412;-64
2021/04/13 00:19:51;;;;;;;7.30;3.60;;;;;;;0.74;100.00;103024.78;3595138;39;20414;-64
2021/04/13 00:22:17;;;;;;;7.13;3.60;;;;;;;0.72;100.00;103024.81;3594958;40;20055;-64
2021/04/13 00:24:44;;;;;;;12.35;3.53;;;;;;;0.76;100.00;103028.31;3595751;40;20540;-63
2021/04/13 00:27:14;;;;;;;8.48;3.92;;;;;;;0.75;100.00;103037.16;3595294;40;20048;-64
2021/04/13 00:29:41;;;;;;;7.65;4.30;;;;;;;0.67;100.00;103035.47;3595082;39;20042;-63
2021/04/13 00:32:07;;;;;;;11.10;4.47;;;;;;;0.61;100.00;103035.53;3594854;40;20050;-64
2021/04/13 00:34:42;;;;;;;10.80;5.00;;;;;;;0.65;100.00;103031.97;3596241;40;20372;-63
2021/04/13 00:37:24;;;;;;;10.50;4.70;;;;;;;0.63;100.00;103028.47;3594954;40;20059;-64
2021/04/13 00:39:52;;;;;;;10.55;5.43;;;;;;;0.63;100.00;103033.78;3594492;39;20036;-63
2021/04/13 00:42:26;;;;;;;10.75;5.38;;;;;;;0.50;100.00;103025.09;3595128;40;20058;-62
2021/04/13 00:44:57;;;;;;;9.68;5.00;;;;;;;0.51;100.00;103028.59;3596129;40;20074;-63
2021/04/13 00:47:27;;;;;;;10.40;5.05;;;;;;;0.56;100.00;103020.59;3594227;39;20044;-62
2021/04/13 00:49:57;;;;;;;10.63;4.53;;;;;;;0.48;100.00;103026.00;3594780;40;20070;-62
2021/04/13 00:52:35;;;;;;;11.50;5.43;;;;;;;0.46;100.00;103020.72;3594877;40;20043;-63
2021/04/13 00:55:04;;;;;;;12.55;4.57;;;;;;;0.38;100.00;103024.34;3595465;40;20051;-63
2021/04/13 00:57:33;;;;;;;;;;;;;;;0.39;100.00;103019.00;3595325;40;20068;-63
2021/04/13 01:00:02;;;;;;;10.23;4.87;;;;;;;0.43;100.00;103027.81;3594508;40;19938;-63
2021/04/13 01:02:30;;;;;;;12.45;5.43;;;;;;;0.37;100.00;103015.53;3593363;40;20266;-63
2021/04/13 01:05:00;;;;;;;14.77;5.97;;;;;;;0.40;100.00;103012.84;3595283;39;20465;-63
2021/04/13 01:07:36;;;;;;;11.32;5.68;;;;;;;0.43;100.00;103017.22;3596407;39;20040;-63
2021/04/13 01:10:09;;;;;;;13.93;5.22;;;;;;;0.46;100.00;103018.06;3596203;40;20072;-63
2021/04/13 01:12:38;;;;;;;16.42;6.75;;;;;;;0.47;100.00;103016.28;3594324;40;20052;-63
2021/04/13 01:15:09;;;;;;;14.88;5.80;;;;;;;0.46;100.00;103017.19;3595831;39;20074;-63
2021/04/13 01:17:36;;;;;;;13.55;5.18;;;;;;;0.45;100.00;103023.38;3596611;40;20044;-63
2021/04/13 01:20:10;;;;;;;11.75;6.05;;;;;;;0.51;100.00;103023.28;3595452;40;20047;-63
2021/04/13 01:22:42;;;;;;;14.13;6.55;;;;;;;0.49;100.00;103025.09;3597204;40;20092;-63
2021/04/13 01:25:10;;;;;;;16.52;6.10;;;;;;;0.53;100.00;103021.53;3596629;40;20060;-63
2021/04/13 01:27:37;;;;;;;10.00;5.00;;;;;;;0.42;100.00;103023.41;3596775;40;20052;-63
2021/04/13 01:30:11;;;;;;;12.80;5.72;;;;;;;0.36;100.00;103021.69;3595206;40;20040;-63
2021/04/13 01:32:40;;;;;;;11.00;5.10;;;;;;;0.26;100.00;103020.03;3596551;40;20060;-63
2021/04/13 01:35:12;;;;;;;10.05;5.35;;;;;;;0.17;100.00;103034.25;3596923;40;20326;-62
2021/04/13 01:37:51;;;;;;;14.23;5.60;;;;;;;0.19;100.00;103019.22;3596788;39;20067;-65
2021/04/13 01:40:23;;;;;;;12.68;5.20;;;;;;;0.08;100.00;103019.34;3595631;39;20110;-62
2021/04/13 01:42:51;;;;;;;10.60;4.72;;;;;;;0.02;100.00;103023.84;3597208;40;20040;-64
2021/04/13 01:45:22;;;;;;;14.43;5.35;;;;;;;-0.06;100.00;103024.78;3595194;40;20062;-63
2021/04/13 01:47:48;;;;;;;10.98;5.47;;;;;;;-0.17;100.00;103024.00;3595563;39;20044;-64
2021/04/13 01:50:17;;;;;;;11.73;5.13;;;;;;;-0.21;100.00;103027.53;3595007;39;20052;-64
2021/04/13 01:52:47;;;;;;;12.80;5.95;;;;;;;-0.27;100.00;103030.25;3597499;39;20423;-64
2021/04/13 01:55:18;;;;;;;13.23;5.70;;;;;;;-0.30;100.00;103039.09;3596804;40;20091;-64
2021/04/13 01:57:53;;;;;;;15.82;6.22;;;;;;;-0.24;100.00;103038.16;3596924;39;20055;-64
2021/04/13 02:00:27;;;;;;;16.15;6.30;;;;;;;-0.21;100.00;103038.13;3595133;39;20052;-62
2021/04/13 02:03:00;;;;;;;12.38;5.63;;;;;;;-0.19;100.00;103041.66;3595686;39;20099;-64
2021/04/13 02:05:30;;;;;;;8.52;5.80;;;;;;;-0.15;100.00;103038.06;3595272;39;20154;-66
2021/04/13 02:08:04;;;;;;;14.40;5.75;;;;;;;-0.16;100.00;103052.22;3593491;40;20055;-64
2021/04/13 02:10:35;;;;;;;11.43;5.50;;;;;;;-0.19;100.00;103046.94;3594230;39;20044;-64
2021/04/13 02:13:06;;;;;;;11.40;6.15;;;;;;;-0.29;100.00;103043.50;3595585;40;20048;-65
2021/04/13 02:15:44;;;;;;;13.82;6.70;;;;;;;-0.35;100.00;103051.47;3596362;39;20076;-63
2021/04/13 02:18:17;;;;;;;11.63;5.82;;;;;;;-0.31;100.00;103062.91;3595809;40;20039;-63
2021/04/13 02:20:45;;;;;;;15.10;6.70;;;;;;;-0.42;100.00;103058.56;3596409;40;20044;-63
2021/04/13 02:23:13;;;;;;;17.35;5.93;;;;;;;-0.48;100.00;103063.91;3595105;40;20051;-63
2021/04/13 02:25:40;;;;;;;13.70;5.47;;;;;;;-0.49;100.00;103067.44;3596010;39;20070;-63
2021/04/13 02:28:08;;;;;;;17.15;5.85;;;;;;;-0.57;100.00;103066.63;3594614;40;20066;-63
2021/04/13 02:30:38;;;;;;;13.57;5.70;;;;;;;-0.59;100.00;103060.44;3595922;40;20297;-63
2021/04/13 02:33:12;;;;;;;12.55;6.65;;;;;;;-0.64;100.00;103071.06;3595641;40;20040;-63
2021/04/13 02:35:40;;;;;;;19.77;6.82;;;;;;;-0.68;100.00;103057.88;3594176;40;20043;-63
2021/04/13 02:38:12;;;;;;;11.05;5.50;;;;;;;-0.73;100.00;103065.84;3594560;39;20076;-63
2021/04/13 02:40:47;;;;;;;14.15;5.97;;;;;;;-0.76;100.00;103066.72;3595800;39;20081;-63
2021/04/13 02:43:19;;;;;;;11.68;5.97;;;;;;;-0.84;100.00;103065.91;3595998;40;20068;-63
2021/04/13 02:45:50;;;;;;;8.63;5.68;;;;;;;-0.80;100.00;103072.91;3595733;40;20084;-63
2021/04/13 02:48:28;;;;;;;11.07;5.85;;;;;;;-0.78;100.00;103071.16;3594523;39;20052;-63
2021/04/13 02:50:58;;;;;;;11.07;5.50;;;;;;;-0.78;100.00;103080.84;3596481;40;20055;-63
2021/04/13 02:53:32;;;;;;;11.90;5.47;;;;;;;-0.83;100.00;103067.66;3595680;40;20129;-63
2021/04/13 02:56:02;;;;;;;12.02;5.57;;;;;;;-0.90;100.00;103073.84;3596296;40;20040;-62
2021/04/13 02:58:37;;;;;;;13.27;5.50;;;;;;;-0.92;100.00;103075.63;3594999;40;20097;-62
2021/04/13 03:01:05;;;;;;;10.98;5.45;;;;;;;-0.92;100.00;103071.22;3595544;39;20056;-63
2021/04/13 03:03:36;;;;;;;10.13;5.78;;;;;;;-0.97;100.00;103072.13;3595022;39;20046;-62
2021/04/13 03:06:02;;;;;;;13.20;5.72;;;;;;;-0.92;100.00;103080.91;3595113;40;20044;-62
2021/04/13 03:08:34;;;;;;;12.82;5.93;;;;;;;-0.92;100.00;103073.84;3593046;40;20092;-62
2021/04/13 03:11:10;;;;;;;14.13;6.60;;;;;;;-0.90;100.00;103076.50;3594948;39;20291;-62
2021/04/13 03:13:38;;;;;;;14.45;6.22;;;;;;;-0.90;100.00;103077.38;3595565;40;20047;-62
2021/04/13 03:16:06;;;;;;;13.70;5.63;;;;;;;-0.90;100.00;103079.13;3595964;39;20396;-62
2021/04/13 03:18:39;;;;;;;16.75;6.68;;;;;;;-0.86;100.00;103080.88;3594267;39;20387;-63
2021/04/13 03:21:09;;;;;;;13.02;6.43;;;;;;;-0.84;100.00;103084.41;3595062;39;20408;-63
2021/04/13 03:23:36;;;;;;;13.07;6.18;;;;;;;-0.92;100.00;103080.91;3595613;40;20052;-62
2021/04/13 03:26:09;;;;;;;14.40;6.13;;;;;;;-0.99;100.00;103077.41;3595393;40;20355;-63
2021/04/13 03:28:40;;;;;;;16.40;6.60;;;;;;;-1.06;100.00;103079.22;3594969;40;20040;-62
2021/04/13 03:31:07;;;;;;;16.27;6.55;;;;;;;-1.11;100.00;103080.97;3595266;39;20063;-61
2021/04/13 03:33:36;;;;;;;13.65;6.10;;;;;;;-1.10;100.00;103076.59;3597099;39;20609;-62
2021/04/13 03:36:08;;;;;;;16.17;5.95;;;;;;;-1.16;100.00;103077.50;3594787;40;20052;-62
2021/04/13 03:38:37;;;;;;;12.25;5.97;;;;;;;-1.19;100.00;103077.50;3594367;39;20060;-62
2021/04/13 03:41:04;;;;;;;14.90;6.43;;;;;;;-1.21;100.00;103073.97;3595599;39;20383;-62
2021/04/13 03:43:32;;;;;;;9.32;5.25;;;;;;;-1.29;100.00;103075.78;3594064;40;20527;-62
2021/04/13 03:46:02;;;;;;;15.13;5.20;;;;;;;-1.25;100.00;103066.97;3595200;40;20044;-62
2021/04/13 03:48:32;;;;;;;10.70;5.38;;;;;;;-1.24;100.00;103071.34;3595731;39;20058;-62
2021/04/13 03:51:01;;;;;;;12.55;5.57;;;;;;;-1.20;100.00;103075.75;3596878;40;20047;-62
2021/04/13 03:53:32;;;;;;;17.45;6.47;;;;;;;-1.20;100.00;103075.75;3593855;40;20076;-62
2021/04/13 03:56:03;;;;;;;12.30;5.38;;;;;;;-1.23;100.00;103078.41;3595781;40;20354;-62
2021/04/13 03:58:35;;;;;;;11.05;5.93;;;;;;;-1.32;100.00;103075.78;3595690;40;20426;-62
2021/04/13 04:01:01;;;;;;;10.82;5.95;;;;;;;-1.31;100.00;103077.53;3595053;40;20040;-62
2021/04/13 04:03:33;;;;;;;14.05;7.05;;;;;;;-1.32;100.00;103075.78;3594002;39;20375;-62
2021/04/13 04:06:01;;;;;;;12.55;5.55;;;;;;;-1.27;100.00;103074.00;3596357;40;20055;-62
2021/04/13 04:08:34;;;;;;;14.32;6.65;;;;;;;-1.27;100.00;103071.34;3595255;40;20070;-62
2021/04/13 04:11:00;;;;;;;13.30;8.00;;;;;;;-1.28;100.00;103078.41;3647064;22;20323;-62
2021/04/13 04:13:31;;;;;;;11.88;7.50;;;;;;;-1.26;100.00;103081.06;3595322;40;20164;-62
2021/04/13 04:16:13;;;;;;;19.50;8.30;;;;;;;-1.26;100.00;103081.06;3594975;40;20059;-62
2021/04/13 04:18:43;;;;;;;20.17;7.63;;;;;;;-1.30;100.00;103082.81;3593716;39;20069;-62
2021/04/13 04:21:31;;;;;;;19.65;8.90;;;;;;;-1.28;100.00;103083.69;3595055;39;20052;-62
2021/04/13 04:24:00;;;;;;;25.17;7.55;;;;;;;-1.28;100.00;103088.09;3595226;40;20051;-62
2021/04/13 04:26:28;;;;;;;14.82;7.22;;;;;;;-1.28;100.00;103088.97;3595402;40;20088;-62
2021/04/13 04:29:12;;;;;;;13.75;6.93;;;;;;;-1.32;100.00;103092.50;3594650;39;20035;-62
2021/04/13 04:31:40;;;;;;;15.43;6.13;;;;;;;-1.36;100.00;103092.53;3594039;40;20024;-62
2021/04/13 04:34:40;;;;;;;17.02;6.43;;;;;;;-1.44;100.00;103090.78;3595444;39;20054;-63
2021/04/13 04:37:19;;;;;;;14.95;7.32;;;;;;;-1.32;100.00;103092.50;3563228;40;20049;-63
2021/04/13 04:39:46;;;;;;;13.68;6.10;;;;;;;-1.37;100.00;103094.31;3562585;40;20065;-62
2021/04/13 04:42:37;;;;;;;14.23;6.43;;;;;;;-1.37;100.00;103096.94;3579808;39;20125;-62
2021/04/13 04:45:11;;;;;;;12.63;5.70;;;;;;;-1.39;100.00;103111.91;3592502;39;22413;-63
2021/04/13 04:47:38;;;;;;;11.27;5.55;;;;;;;-1.40;100.00;103107.50;3594396;39;21350;-62
2021/04/13 04:50:05;;;;;;;13.95;6.70;;;;;;;-1.33;100.00;103105.72;3593368;39;20222;-63
2021/04/13 04:52:32;;;;;;;14.48;6.35;;;;;;;-1.34;100.00;103120.72;3595599;39;20044;-62
2021/04/13 04:54:58;;;;;;;16.58;6.60;;;;;;;-1.30;100.00;103121.56;3595339;40;20351;-62
2021/04/13 04:57:24;;;;;;;13.50;6.68;;;;;;;-1.26;100.00;103129.47;3596276;40;20044;-62
2021/04/13 04:59:50;;;;;;;13.25;7.03;;;;;;;-1.26;100.00;103131.25;3594475;39;20055;-62
2021/04/13 05:02:16;;;;;;;16.05;6.32;;;;;;;-1.26;100.00;103134.75;3594893;40;20048;-63
2021/04/13 05:04:44;;;;;;;16.65;7.03;;;;;;;-1.30;100.00;103134.78;3595527;40;20060;-61
2021/04/13 05:07:11;;;;;;;14.57;6.75;;;;;;;-1.24;100.00;103132.13;3595643;39;20036;-62
2021/04/13 05:09:37;;;;;;;11.18;6.25;;;;;;;-1.30;100.00;103126.84;3595056;40;20060;-62
2021/04/13 05:12:05;;;;;;;12.80;6.22;;;;;;;-1.29;100.00;103133.91;3594537;40;20040;-64
2021/04/13 05:14:31;;;;;;;18.70;6.80;;;;;;;-1.26;100.00;103134.75;3595554;40;20075;-62
2021/04/13 05:16:56;;;;;;;11.82;6.53;;;;;;;-1.21;100.00;103142.66;3594627;40;20133;-64
2021/04/13 05:19:22;;;;;;;12.88;6.20;;;;;;;-1.20;100.00;103143.56;3595207;39;20390;-62
2021/04/13 05:21:48;;;;;;;14.93;6.55;;;;;;;-1.23;100.00;103150.59;3595357;40;20032;-61
2021/04/13 05:27:21;;;;;;;15.93;7.28;;;;;;;-1.08;100.00;103148.81;3609826;23;20056;-63
2021/04/13 05:29:47;;;;;;;15.07;6.40;;;;;;;-1.04;100.00;103147.94;3574614;40;20323;-61
2021/04/13 05:32:13;;;;;;;18.48;7.47;;;;;;;-0.98;100.00;103149.69;3573563;40;20041;-64
2021/04/13 05:34:39;;;;;;;15.27;6.90;;;;;;;-0.92;100.00;103154.94;3575802;40;20057;-63
2021/04/13 05:37:05;;;;;;;17.35;7.28;;;;;;;-0.86;100.00;103161.97;3574952;40;20064;-63
2021/04/13 05:39:31;;;;;;;13.63;7.32;;;;;;;-0.85;100.00;103159.31;3573360;40;20037;-62
2021/04/13 05:42:00;;;;;;;21.15;7.22;;;;;;;-0.72;100.00;103163.66;3574619;40;20056;-64
2021/04/13 05:44:26;;;;;;;16.48;6.82;;;;;;;-0.64;100.00;103158.34;3575025;40;20045;-62
2021/04/13 05:46:53;;;;;;;16.55;6.60;;;;;;;-0.60;100.00;103161.88;3574916;40;20033;-63
2021/04/13 05:49:20;;;;;;;15.05;6.55;;;;;;;-0.57;100.00;103167.16;3573734;40;20059;-61
2021/04/13 05:51:46;;;;;;;15.40;6.57;;;;;;;-0.30;100.00;103165.22;3575568;40;20059;-61
2021/04/13 05:54:17;;;;;;;15.02;6.47;;;;;;;-0.23;100.00;103170.47;3575684;40;20055;-60
2021/04/13 05:56:44;;;;;;;10.18;5.20;;;;;;;-0.06;100.00;103174.78;3573800;40;20041;-64
2021/04/13 05:59:13;;;;;;;11.15;5.13;;;;;;;0.40;100.00;103177.09;3574668;40;20044;-64
2021/04/13 06:01:45;;;;;;;13.18;5.32;;;;;;;1.66;100.00;103172.13;3575434;40;20281;-62
2021/04/13 06:04:13;;;;;;;12.40;4.50;;;;;;;2.05;100.00;103175.09;3576054;40;20101;-63
2021/04/13 06:06:39;;;;;;;13.07;4.25;;;;;;;1.92;100.00;103171.75;3574896;40;20039;-64
2021/04/13 06:09:05;;;;;;;11.68;3.83;;;;;;;1.89;100.00;103173.59;3571428;40;20067;-62
2021/04/13 06:11:32;;;;;;;10.40;4.07;;;;;;;2.01;100.00;103178.69;3572813;40;20358;-62
2021/04/13 06:14:00;;;;;;;11.93;4.57;;;;;;;2.16;100.00;103174.06;3575669;40;20041;-62
2021/04/13 06:16:32;;;;;;;10.93;3.95;;;;;;;2.21;100.00;103185.47;3573782;40;20380;-62
2021/04/13 06:19:00;;;;;;;14.65;4.40;;;;;;;2.59;100.00;103189.28;3575648;40;20061;-62
2021/04/13 06:21:26;;;;;;;14.00;3.30;;;;;;;2.40;100.00;103183.38;3575292;40;20055;-62
2021/04/13 06:23:52;;;;;;;12.18;4.18;;;;;;;2.25;100.00;103198.72;3574727;40;20029;-62
2021/04/13 06:26:18;;;;;;;14.13;4.50;;;;;;;2.54;100.00;103207.97;3579664;40;20056;-63
2021/04/13 06:28:44;;;;;;;5.55;3.45;;;;;;;2.63;100.00;103191.88;3584947;40;20064;-62
2021/04/13 06:31:10;;;;;;;8.57;3.83;;;;;;;2.67;100.00;103200.66;3583535;40;20048;-63
2021/04/13 06:33:36;;;;;;;14.60;3.85;;;;;;;2.63;100.00;103197.19;3586185;40;20382;-62
2021/04/13 06:36:06;;;;;;;10.82;3.10;;;;;;;2.65;100.00;103202.47;3584749;40;20102;-63
2021/04/13 06:38:35;;;;;;;12.90;3.13;;;;;;;2.72;100.00;103209.41;3585547;40;20061;-69
2021/04/13 06:41:16;;;;;;;11.73;3.05;;;;;;;2.86;100.00;103216.31;3586370;40;20359;-62
2021/04/13 06:44:08;;;;;;;11.68;2.90;;;;;;;2.90;100.00;103215.31;3585992;40;20298;-62
2021/04/13 06:46:41;;;;;;;12.48;2.58;;;;;;;3.01;100.00;103217.78;3578887;40;20084;-63
2021/04/13 06:49:19;;;;;;;14.77;2.70;;;;;;;3.13;100.00;103218.41;3584172;40;20056;-63
2021/04/13 06:52:03;;;;;;;12.38;3.10;;;;;;;3.16;100.00;103217.50;3583477;40;20150;-63
2021/04/13 06:54:40;;;;;;;13.45;3.40;;;;;;;3.36;100.00;103221.53;3586517;40;20043;-63
2021/04/13 06:57:18;;;;;;;7.75;2.97;;;;;;;3.41;100.00;103225.84;3585667;40;20311;-62
2021/04/13 07:00:21;;;;;;;8.57;2.63;;;;;;;3.58;100.00;103227.28;3584999;40;20404;-70
2021/04/13 07:02:54;;;;;;;7.65;2.25;;;;;;;3.61;100.00;103235.25;3585022;40;20044;-62
2021/04/13 07:05:28;;;;;;;7.82;2.33;;;;;;;3.68;100.00;103235.06;3584665;40;20052;-67
2021/04/13 07:08:01;;;;;;;11.27;2.53;;;;;;;3.77;100.00;103239.31;3585015;40;20044;-63
2021/04/13 07:10:30;;;;;;;7.05;2.50;;;;;;;3.96;100.00;103244.22;3583899;40;20056;-62
2021/04/13 07:13:05;;;;;;;11.02;2.30;;;;;;;4.16;100.00;103246.44;3585336;40;20431;-62
2021/04/13 07:15:37;;;;;;;10.32;2.10;;;;;;;4.33;100.00;103244.28;3585808;40;20040;-69
2021/04/13 07:18:08;;;;;;;7.93;1.85;;;;;;;4.27;100.00;103252.41;3585759;40;20293;-63
2021/04/13 07:20:39;;;;;;;12.60;2.78;;;;;;;4.42;100.00;103248.50;3584812;40;20045;-63
2021/04/13 07:23:13;;;;;;;11.10;1.98;;;;;;;4.64;100.00;103258.63;3584644;40;20051;-63
2021/04/13 07:25:44;;;;;;;12.27;2.10;;;;;;;4.78;100.00;103259.16;3584985;40;20500;-70
2021/04/13 07:28:16;;;;;;;6.63;1.63;;;;;;;4.88;100.00;103254.47;3585110;40;20044;-63
2021/04/13 07:30:47;;;;;;;10.13;2.00;;;;;;;4.89;100.00;103257.09;3585795;40;20044;-61
2021/04/13 07:33:20;;;;;;;9.88;2.50;;;;;;;5.03;100.00;103262.06;3585812;40;20069;-64
2021/04/13 07:35:48;;;;;;;5.20;1.60;;;;;;;5.09;100.00;103258.34;3585928;40;20036;-70
2021/04/13 07:38:19;;;;;;;8.30;1.67;;;;;;;5.28;100.00;103260.53;3585400;40;20060;-66
2021/04/13 07:40:50;;;;;;;8.57;1.75;;;;;;;5.29;100.00;103247.13;3585514;40;20446;-63
2021/04/13 07:43:21;;;;;;;8.88;1.52;;;;;;;5.48;100.00;103247.50;3584590;40;20044;-64
2021/04/13 07:45:59;;;;;;;7.13;1.75;;;;;;;5.45;100.00;103247.59;3585344;40;20433;-63
2021/04/13 07:48:36;;;;;;;10.73;1.70;;;;;;;5.59;100.00;103242.72;3585138;40;20048;-66
2021/04/13 07:51:15;;;;;;;7.13;1.50;;;;;;;5.83;100.00;103245.59;3585860;40;20044;-62
2021/04/13 07:54:00;;;;;;;8.65;1.40;;;;;;;5.87;100.00;103246.34;3584887;40;20089;-63
2021/04/13 07:56:35;;;;;;;8.05;1.30;;;;;;;6.08;100.00;103242.16;3585418;40;20333;-64
2021/04/13 07:59:08;;;;;;;6.70;1.50;;;;;;;5.80;100.00;103248.34;3584787;40;20056;-63
2021/04/13 08:01:34;;;;;;;5.68;1.40;;;;;;;5.99;100.00;103245.13;3582765;40;20037;-63
2021/04/13 08:04:00;;;;;;;5.70;1.55;;;;;;;6.02;100.00;103255.72;3584981;40;20076;-69
2021/04/13 08:06:47;;;;;;;6.80;1.40;;;;;;;6.00;100.00;103252.25;3583763;40;20093;-65
2021/04/13 08:09:26;;;;;;;4.65;1.30;;;;;;;5.92;100.00;103247.09;3584817;40;20307;-63
2021/04/13 08:12:12;;;;;;;4.63;1.45;;;;;;;6.06;100.00;103244.88;3585853;40;20174;-69
2021/04/13 08:14:40;;;;;;;8.13;1.40;;;;;;;6.36;100.00;103249.31;3585698;40;20079;-63
2021/04/13 08:17:11;;;;;;;3.45;1.20;;;;;;;6.58;100.00;103247.69;3585561;40;20048;-64
2021/04/13 08:19:37;;;;;;;5.50;1.23;;;;;;;6.60;100.00;103247.66;3585681;40;20052;-66
2021/04/13 08:22:08;;;;;;;4.28;1.38;;;;;;;6.89;100.00;103251.13;3585450;40;20060;-68
2021/04/13 08:24:39;;;;;;;5.25;0.90;;;;;;;6.98;100.00;103257.03;3585955;40;20044;-62
2021/04/13 08:27:19;;;;;;;3.97;1.00;;;;;;;6.79;100.00;103255.94;3584258;40;20053;-65
2021/04/13 08:29:49;;;;;;;5.05;0.90;;;;;;;6.60;100.00;103261.03;3585579;40;20052;-62
2021/04/13 08:35:15;;;;;;;5.13;1.13;;;;;;;7.36;100.00;103248.53;3584608;40;20302;-65
2021/04/13 08:37:51;;;;;;;4.95;1.20;;;;;;;7.24;100.00;103257.03;3586454;40;20088;-63
2021/04/13 08:40:25;;;;;;;8.68;1.70;;;;;;;7.04;100.00;103252.38;3584310;40;20048;-63
2021/04/13 08:42:59;;;;;;;10.30;1.30;;;;;;;6.90;100.00;103259.09;3584959;40;20048;-64
2021/04/13 08:45:32;;;;;;;6.55;0.95;;;;;;;7.52;100.00;103267.63;3584691;40;20080;-64
2021/04/13 08:48:02;;;;;;;7.15;1.30;;;;;;;7.41;100.00;103264.47;3586360;40;20185;-66
2021/04/13 08:50:39;;;;;;;6.28;1.20;;;;;;;7.06;100.00;103264.78;3584887;40;20044;-63
2021/04/13 08:53:08;;;;;;;7.07;1.50;;;;;;;7.22;100.00;103270.47;3585979;40;20067;-64
2021/04/13 08:56:03;;;;;;;6.68;1.38;;;;;;;7.47;100.00;103261.56;3584993;40;20051;-63
2021/04/13 08:58:39;;;;;;;5.57;0.80;;;;;;;7.27;100.00;103268.50;3583943;40;20045;-63
2021/04/13 09:01:26;;;;;;;5.82;1.20;;;;;;;7.52;100.00;103272.97;3584214;40;20145;-63
2021/04/13 09:03:53;;;;;;;3.33;1.27;;;;;;;7.74;100.00;103272.19;3585850;40;20135;-67
2021/04/13 09:06:27;;;;;;;7.53;1.85;;;;;;;7.74;100.00;103272.19;3618899;22;20048;-65
2021/04/13 09:09:00;;;;;;;3.38;1.17;;;;;;;8.00;100.00;103269.34;3583887;40;20525;-64
2021/04/13 09:11:30;;;;;;;7.75;1.02;;;;;;;8.37;100.00;103273.25;3584162;40;20403;-63
2021/04/13 09:14:04;;;;;;;4.88;1.35;;;;;;;8.15;100.00;103269.69;3585646;40;20052;-67
2021/04/13 09:16:35;;;;;;;4.68;1.15;;;;;;;7.51;100.00;103268.56;3584569;40;20064;-64
2021/04/13 09:19:07;;;;;;;3.20;1.08;;;;;;;7.45;100.00;103266.09;3582445;40;20290;-66
2021/04/13 09:21:43;;;;;;;10.57;2.15;;;;;;;7.95;100.00;103259.75;3585131;40;20061;-64
2021/04/13 09:24:15;;;;;;;7.95;1.45;;;;;;;8.46;100.00;103274.72;3594097;40;20164;-67
2021/04/13 09:26:52;;;;;;;4.70;1.00;;;;;;;8.36;100.00;103260.78;3595314;39;20047;-63
2021/04/13 09:29:31;;;;;;;8.02;1.35;;;;;;;8.35;100.00;103268.91;3594338;40;20318;-64
2021/04/13 09:31:58;;;;;;;3.80;1.05;;;;;;;8.38;100.00;103275.00;3595788;40;20059;-67
2021/04/13 09:34:34;;;;;;;7.60;1.60;;;;;;;8.68;100.00;103266.66;3593461;39;20044;-64
2021/04/13 09:37:34;;;;;;;4.85;1.25;;;;;;;8.39;99.60;103265.13;3595937;40;20122;-65
2021/04/13 09:40:04;;;;;;;;;;;;;;;8.24;100.00;103272.00;3592807;40;20032;-64
2021/04/13 09:42:58;;;;;;;3.40;1.10;;;;;;;8.46;100.00;103261.31;3595988;40;19940;-65
2021/04/13 09:45:31;;;;;;;6.78;1.42;;;;;;;8.36;100.00;103260.78;3584595;40;20046;-72
2021/04/13 09:48:14;;;;;;;5.30;1.20;;;;;;;7.83;100.00;103255.72;3596454;39;20047;-66
2021/04/13 09:50:52;;;;;;;4.03;1.10;;;;;;;7.94;95.81;103256.19;3594792;39;20050;-65
2021/04/13 09:53:41;;;;;;;3.00;1.20;;;;;;;8.42;98.76;103260.53;3595670;39;20059;-68
2021/04/13 09:56:23;;;;;;;3.20;1.10;;;;;;;8.78;93.99;103251.03;3596573;40;20080;-64
2021/04/13 09:59:13;;;;;;;5.78;1.33;;;;;;;8.92;92.22;103245.06;3596465;40;20036;-70
2021/04/13 10:01:54;;;;;;;3.65;1.30;;;;;;;9.18;88.25;103253.81;3593074;40;20048;-64
2021/04/13 10:04:40;;;;;;;6.55;1.77;;;;;;;9.21;86.25;103248.28;3596684;39;20170;-65
2021/04/13 10:07:19;;;;;;;2.63;0.88;;;;;;;8.95;87.97;103247.59;3596324;40;20056;-64
2021/04/13 10:09:46;;;;;;;5.70;1.23;;;;;;;8.99;90.04;103256.44;3595370;40;20063;-64
2021/04/13 10:12:50;;;;;;;7.50;1.40;;;;;;;8.59;88.49;103248.25;3594786;40;20086;-65
2021/04/13 10:15:26;;;;;;;2.92;1.20;;;;;;;9.20;83.67;103239.38;3594740;40;20378;-64
2021/04/13 10:18:08;;;;;;;5.07;1.30;;;;;;;8.74;84.07;103244.91;3596042;39;20048;-64
2021/04/13 10:20:51;;;;;;;4.13;1.08;;;;;;;9.33;86.76;103234.28;3596285;40;20044;-65
2021/04/13 10:24:02;;;;;;;6.70;1.20;;;;;;;9.64;82.08;103235.56;3596631;40;20068;-63
2021/04/13 10:26:56;;;;;;;3.95;1.05;;;;;;;9.44;84.10;103245.44;3569027;40;20065;-62
2021/04/13 10:29:53;;;;;;;6.50;1.42;;;;;;;9.34;80.39;103238.72;3595403;40;20484;-67
2021/04/13 10:32:41;;;;;;;6.95;1.30;;;;;;;9.46;79.22;103231.94;3595660;40;20060;-64
2021/04/13 10:35:25;;;;;;;3.10;1.10;;;;;;;9.64;75.51;103230.19;3594457;39;20067;-66
2021/04/13 10:38:16;;;;;;;4.32;1.45;;;;;;;9.77;75.57;103228.66;3594383;39;20040;-65
2021/04/13 10:41:18;;;;;;;3.53;1.00;;;;;;;9.59;75.20;103230.41;3594739;40;20048;-66
2021/04/13 10:44:24;;;;;;;3.45;0.98;;;;;;;9.86;73.02;103229.19;3595775;39;20614;-65
2021/04/13 10:46:52;;;;;;;4.32;1.30;;;;;;;9.89;70.81;103221.84;3579771;39;20050;-65
2021/04/13 10:50:06;;;;;;;4.35;1.02;;;;;;;10.10;72.52;103221.75;3595561;39;20051;-63
2021/04/13 10:53:08;;;;;;;3.58;1.25;;;;;;;10.44;68.14;103226.38;3596177;39;20133;-64
2021/04/13 10:55:44;;;;;;;4.20;1.30;;;;;;;10.50;68.91;103228.75;3590628;39;20095;-64
2021/04/13 10:58:47;;;;;;;2.75;0.90;;;;;;;10.50;71.49;103234.13;3595813;40;20288;-66
2021/04/13 11:01:58;;;;;;;3.45;1.10;;;;;;;9.83;74.65;103224.81;3595381;40;20051;-65
2021/04/13 11:05:04;;;;;;;3.75;1.20;;;;;;;9.23;81.03;103235.66;3596384;40;20313;-66
2021/04/13 11:08:04;;;;;;;3.05;0.90;;;;;;;9.20;84.81;103233.09;3594536;39;20043;-65
2021/04/13 11:10:58;;;;;;;2.47;0.90;;;;;;;8.46;88.08;103255.06;3593990;40;20055;-64
2021/04/13 11:14:03;;;;;;;5.93;1.23;;;;;;;8.09;92.57;103240.44;3594582;40;20291;-67
2021/04/13 11:16:57;;;;;;;3.03;1.23;;;;;;;8.71;96.14;103238.81;3594785;39;20070;-67
2021/04/13 11:19:26;;;;;;;7.07;1.20;;;;;;;9.12;90.48;103239.69;3595729;40;20048;-64
2021/04/13 11:22:36;;;;;;;2.88;1.15;;;;;;;9.41;87.32;103224.06;3595372;40;20052;-66
2021/04/13 11:29:03;;;;;;;4.78;1.60;;;;;;;9.76;83.35;103229.63;3617439;23;20465;-63
2021/04/13 11:32:05;;;;;;;3.38;0.88;;;;;;;10.00;79.55;103224.03;3548832;40;20054;-67
2021/04/13 11:34:46;;;;;;;7.35;1.23;;;;;;;10.57;77.12;103217.66;3595939;39;20064;-65
2021/04/13 11:37:28;;;;;;;5.88;1.38;;;;;;;10.61;76.55;103222.81;3595966;39;20325;-66
2021/04/13 11:40:11;;;;;;;3.22;1.23;;;;;;;10.27;81.12;103223.63;3596062;39;20485;-65
2021/04/13 11:42:39;;;;;;;5.60;1.00;;;;;;;10.20;73.60;103227.56;3595376;39;20055;-67
2021/04/13 11:45:21;;;;;;;2.13;0.90;;;;;;;9.77;77.90;103220.59;3593493;39;20401;-63
2021/04/13 11:47:53;;;;;;;8.15;1.30;;;;;;;9.57;76.58;103223.34;3595657;39;20068;-64
2021/04/13 11:50:26;;;;;;;3.28;1.05;;;;;;;10.14;74.14;103218.84;3592933;39;20048;-67
2021/04/13 11:52:56;;;;;;;3.45;1.25;;;;;;;10.81;73.22;103213.72;3595332;39;20044;-64
2021/04/13 11:55:47;;;;;;;1.95;0.80;;;;;;;10.67;67.73;103224.31;3595990;39;20423;-66
2021/04/13 11:58:20;;;;;;;6.65;1.58;;;;;;;10.41;69.26;103226.53;3589600;39;20048;-68
2021/04/13 12:00:47;;;;;;;5.35;1.10;;;;;;;10.54;68.29;103217.81;3593316;39;20064;-67
2021/04/13 12:03:30;;;;;;;3.42;0.98;;;;;;;10.66;66.37;103219.91;3593291;39;20068;-67